Time;durP1;ratioP1;P1;durP2;ratioP2;P2;SDS_P1;SDS_P2;PMS_P1;PMS_P2;Temp;Humidity;BMP_temperature;BMP_pressure;BME280_temperature;BME280_humidity;BME280_pressure;Samples;Min_cycle;Max_cycle;Signal;HPM_P1;HPM_P2
2021/01/02 00:00:16;;;;;;;35.40;16.67;;;18.30;54.30;;;;;;4856364;29;20110;-53
2021/01/02 00:03:26;;;;;;;39.97;17.05;;;18.30;54.30;;;;;;4841288;29;20049;-52
2021/01/02 00:06:02;;;;;;;38.38;15.35;;;18.40;54.20;;;;;;4794129;29;20050;-51
2021/01/02 00:08:30;;;;;;;29.58;15.52;;;18.30;54.20;;;;;;4801489;29;20125;-53
2021/01/02 00:11:21;;;;;;;36.33;14.60;;;18.40;54.00;;;;;;4801646;29;20079;-51
2021/01/02 00:14:02;;;;;;;34.22;14.23;;;18.40;54.20;;;;;;4798366;29;20047;-49
2021/01/02 00:17:03;;;;;;;27.50;16.00;;;18.40;54.10;;;;;;4803684;29;20075;-53
2021/01/02 00:19:59;;;;;;;26.30;13.05;;;18.30;53.80;;;;;;4790541;29;20173;-47
2021/01/02 00:22:41;;;;;;;27.00;12.95;;;18.30;53.90;;;;;;4775802;30;20051;-52
2021/01/02 00:25:12;;;;;;;29.20;15.20;;;18.40;53.90;;;;;;4783142;29;20354;-53
2021/01/02 00:28:03;;;;;;;32.83;13.63;;;18.30;53.90;;;;;;4783460;29;20043;-54
2021/01/02 00:31:00;;;;;;;33.70;13.10;;;18.30;53.90;;;;;;4783389;29;20223;-54
2021/01/02 00:33:40;;;;;;;25.23;11.95;;;18.40;54.00;;;;;;4781224;29;20078;-53
2021/01/02 00:36:13;;;;;;;26.30;12.85;;;18.30;53.80;;;;;;4780495;30;20085;-54
2021/01/02 00:38:41;;;;;;;32.17;12.98;;;18.40;53.90;;;;;;4781331;30;20052;-49
2021/01/02 00:41:08;;;;;;;33.88;12.40;;;18.30;53.70;;;;;;4796544;29;20084;-51
2021/01/02 00:43:34;;;;;;;35.45;11.40;;;18.30;53.70;;;;;;4817075;29;20527;-56
2021/01/02 00:46:01;;;;;;;30.67;11.63;;;18.30;53.70;;;;;;4803715;29;20058;-55
2021/01/02 00:48:31;;;;;;;26.58;12.48;;;18.40;53.60;;;;;;4799005;29;20050;-48
2021/01/02 00:51:01;;;;;;;19.55;10.65;;;18.30;53.60;;;;;;4813131;29;20126;-52
2021/01/02 00:53:48;;;;;;;28.35;11.07;;;18.40;53.70;;;;;;4817267;29;20050;-49
2021/01/02 00:56:28;;;;;;;24.45;11.20;;;18.40;53.60;;;;;;4801077;29;20047;-54
2021/01/02 00:59:36;;;;;;;22.15;10.80;;;18.40;53.60;;;;;;4803655;29;20558;-50
2021/01/02 01:02:25;;;;;;;20.60;9.65;;;18.40;53.50;;;;;;4839744;29;20050;-50
2021/01/02 01:05:08;;;;;;;18.13;9.55;;;18.30;53.40;;;;;;4856245;29;20060;-53
2021/01/02 01:07:36;;;;;;;20.50;10.82;;;18.40;53.40;;;;;;4855045;29;20045;-50
2021/01/02 01:10:09;;;;;;;21.77;8.70;;;18.30;53.30;;;;;;4856326;29;20084;-52
2021/01/02 01:12:43;;;;;;;16.95;9.68;;;18.30;53.50;;;;;;4856502;29;20462;-51
2021/01/02 01:15:11;;;;;;;17.02;9.35;;;18.30;53.50;;;;;;4855555;29;20049;-50
2021/01/02 01:17:49;;;;;;;23.58;10.07;;;18.30;53.40;;;;;;4854825;29;20117;-52
2021/01/02 01:20:18;;;;;;;15.18;7.60;;;18.30;53.60;;;;;;4847296;29;20049;-52
2021/01/02 01:22:59;;;;;;;16.65;10.05;;;18.30;53.50;;;;;;4846846;29;20097;-53
2021/01/02 01:25:49;;;;;;;23.23;8.13;;;18.30;53.60;;;;;;4853893;29;20046;-49
2021/01/02 01:28:19;;;;;;;17.40;8.15;;;18.30;53.40;;;;;;4837050;29;20053;-52
2021/01/02 01:30:51;;;;;;;14.73;8.13;;;18.30;53.40;;;;;;4840940;29;20056;-51
2021/01/02 01:33:27;;;;;;;18.50;9.00;;;18.30;53.40;;;;;;4854534;29;20058;-52
2021/01/02 01:36:00;;;;;;;20.75;8.82;;;18.30;53.40;;;;;;4850822;29;20061;-48
2021/01/02 01:38:28;;;;;;;14.40;7.97;;;18.30;53.40;;;;;;4852702;29;20057;-52
2021/01/02 01:41:04;;;;;;;11.25;6.57;;;18.30;53.30;;;;;;4854733;29;20529;-54
2021/01/02 01:44:19;;;;;;;16.02;7.45;;;18.30;53.40;;;;;;4838930;29;20052;-56
2021/01/02 01:46:52;;;;;;;13.88;7.55;;;18.30;53.10;;;;;;4765426;30;20243;-56
2021/01/02 01:50:00;;;;;;;14.10;6.85;;;18.30;53.30;;;;;;4778186;30;20055;-49
2021/01/02 01:52:40;;;;;;;14.68;7.43;;;18.30;53.20;;;;;;4779952;30;20078;-48
2021/01/02 01:55:09;;;;;;;13.63;8.32;;;18.30;53.30;;;;;;4777004;30;20047;-57
2021/01/02 01:57:39;;;;;;;13.35;7.03;;;18.20;53.20;;;;;;4780694;30;20641;-53
2021/01/02 02:00:09;;;;;;;16.05;6.35;;;18.20;53.30;;;;;;4779666;30;20051;-52
2021/01/02 02:03:11;;;;;;;19.35;6.88;;;18.20;53.30;;;;;;4763673;30;20096;-58
2021/01/02 02:05:53;;;;;;;12.63;6.90;;;18.30;53.10;;;;;;4780509;30;20142;-55
2021/01/02 02:08:42;;;;;;;15.88;6.22;;;18.20;53.20;;;;;;4780130;30;20059;-49
2021/01/02 02:11:30;;;;;;;10.02;5.85;;;18.20;53.20;;;;;;4764613;30;20155;-56
2021/01/02 02:14:09;;;;;;;15.32;6.20;;;18.20;53.20;;;;;;4779868;29;20047;-57
2021/01/02 02:16:41;;;;;;;10.65;5.65;;;18.20;53.10;;;;;;4776237;29;20055;-56
2021/01/02 02:19:29;;;;;;;13.68;6.45;;;18.20;53.10;;;;;;4788112;29;21026;-49
2021/01/02 02:22:03;;;;;;;12.13;5.90;;;18.20;53.10;;;;;;4809030;29;20164;-51
2021/01/02 02:24:32;;;;;;;10.65;6.10;;;18.20;53.10;;;;;;4850681;29;20617;-53
2021/01/02 02:27:01;;;;;;;9.00;6.18;;;18.20;53.00;;;;;;4850717;29;20044;-53
2021/01/02 02:29:37;;;;;;;12.23;6.47;;;18.20;53.00;;;;;;4854015;29;20056;-55
2021/01/02 02:32:07;;;;;;;;;;;18.20;53.10;;;;;;4854648;29;20120;-51
2021/01/02 02:34:36;;;;;;;14.15;6.05;;;18.10;52.00;;;;;;4854535;29;19924;-52
2021/01/02 02:37:03;;;;;;;8.80;4.88;;;18.10;52.60;;;;;;4858909;29;20081;-53
2021/01/02 02:39:29;;;;;;;12.68;5.85;;;18.20;53.30;;;;;;4855957;29;20228;-49
2021/01/02 02:41:59;;;;;;;7.60;5.93;;;18.10;52.80;;;;;;4836282;29;20158;-51
2021/01/02 02:44:29;;;;;;;6.90;4.93;;;18.20;52.90;;;;;;4854974;29;20050;-53
2021/01/02 02:46:58;;;;;;;11.32;5.10;;;18.20;52.90;;;;;;4854864;29;20046;-50
2021/01/02 02:49:26;;;;;;;9.25;3.97;;;18.20;52.90;;;;;;4825685;29;20042;-47
2021/01/02 02:51:58;;;;;;;14.35;6.47;;;18.20;52.80;;;;;;4857019;29;20057;-48
2021/01/02 02:54:25;;;;;;;9.65;4.72;;;18.20;52.90;;;;;;4848638;29;20058;-48
2021/01/02 02:56:52;;;;;;;8.15;5.20;;;18.20;52.70;;;;;;4850854;29;20061;-52
2021/01/02 02:59:18;;;;;;;10.25;4.32;;;18.10;52.70;;;;;;4858465;29;20104;-53
2021/01/02 03:01:48;;;;;;;7.35;4.35;;;18.20;52.70;;;;;;4857694;29;20124;-47
2021/01/02 03:04:15;;;;;;;9.70;4.63;;;18.20;52.80;;;;;;4858644;29;20053;-50
2021/01/02 03:06:43;;;;;;;8.48;4.15;;;18.20;52.70;;;;;;4858249;29;20053;-56
2021/01/02 03:09:10;;;;;;;13.82;4.40;;;18.20;52.70;;;;;;4859103;29;20060;-50
2021/01/02 03:11:37;;;;;;;5.82;5.03;;;18.10;52.50;;;;;;4858975;29;20132;-52
2021/01/02 03:14:03;;;;;;;10.82;5.55;;;18.20;52.50;;;;;;4859240;29;20046;-48
2021/01/02 03:16:31;;;;;;;9.18;4.78;;;18.20;52.40;;;;;;4846111;29;20069;-51
2021/01/02 03:19:00;;;;;;;6.47;4.18;;;18.20;52.40;;;;;;4856235;29;20267;-50
2021/01/02 03:21:28;;;;;;;4.65;3.97;;;18.20;52.30;;;;;;4859062;29;20109;-55
2021/01/02 03:23:57;;;;;;;7.10;4.18;;;18.20;52.30;;;;;;4858237;29;20049;-48
2021/01/02 03:26:23;;;;;;;7.30;4.32;;;18.20;52.20;;;;;;4858791;29;20065;-47
2021/01/02 03:28:50;;;;;;;4.68;3.97;;;18.20;52.20;;;;;;4858749;29;20052;-52
2021/01/02 03:31:17;;;;;;;7.25;3.97;;;18.20;52.20;;;;;;4858625;29;20097;-49
2021/01/02 03:33:44;;;;;;;7.10;3.35;;;18.20;52.20;;;;;;4859783;29;20093;-51
2021/01/02 03:36:12;;;;;;;4.68;3.67;;;18.20;52.20;;;;;;4858685;29;20128;-56
2021/01/02 03:38:40;;;;;;;7.88;3.88;;;18.10;52.10;;;;;;4858573;29;20045;-49
2021/01/02 03:41:07;;;;;;;5.03;4.10;;;18.20;52.20;;;;;;4841368;29;20101;-54
2021/01/02 03:43:35;;;;;;;7.70;4.53;;;18.10;52.10;;;;;;4855331;29;20082;-57
2021/01/02 03:46:02;;;;;;;5.93;3.92;;;18.10;52.00;;;;;;4862472;29;20041;-51
2021/01/02 03:48:29;;;;;;;9.10;4.82;;;18.10;52.00;;;;;;4860397;29;20057;-51
2021/01/02 03:50:55;;;;;;;4.20;3.80;;;18.10;51.90;;;;;;4862241;29;20048;-52
2021/01/02 03:53:22;;;;;;;4.82;4.30;;;18.10;51.90;;;;;;4861440;29;20040;-48
2021/01/02 03:55:49;;;;;;;5.75;4.40;;;18.10;51.90;;;;;;4857704;29;20520;-54
2021/01/02 03:58:16;;;;;;;11.77;4.25;;;18.10;51.90;;;;;;4860402;29;20429;-55
2021/01/02 04:00:42;;;;;;;9.40;4.30;;;18.10;51.90;;;;;;4863742;29;20041;-56
2021/01/02 04:03:09;;;;;;;5.95;3.40;;;18.10;52.00;;;;;;4844071;29;20060;-53
2021/01/02 04:05:36;;;;;;;6.07;3.53;;;18.10;52.00;;;;;;4843485;29;20051;-50
2021/01/02 04:08:03;;;;;;;4.82;2.95;;;18.10;52.00;;;;;;4857852;29;20049;-52
2021/01/02 04:10:30;;;;;;;3.70;2.92;;;18.10;52.00;;;;;;4862330;29;20041;-52
2021/01/02 04:12:57;;;;;;;4.70;3.10;;;18.10;52.00;;;;;;4862691;29;20049;-54
2021/01/02 04:15:24;;;;;;;5.88;3.45;;;18.10;52.00;;;;;;4859750;29;20053;-54
2021/01/02 04:17:50;;;;;;;6.82;3.97;;;18.10;52.00;;;;;;4861638;29;20093;-50
2021/01/02 04:20:17;;;;;;;6.72;3.60;;;18.10;52.00;;;;;;4857305;29;20045;-48
2021/01/02 04:22:44;;;;;;;3.63;2.85;;;18.10;52.00;;;;;;4857487;29;20060;-51
2021/01/02 04:25:11;;;;;;;3.88;2.75;;;18.10;52.00;;;;;;4860178;29;20132;-53
2021/01/02 04:27:37;;;;;;;5.13;3.47;;;18.10;51.90;;;;;;4865374;29;20048;-49
2021/01/02 04:30:06;;;;;;;4.05;3.50;;;18.00;51.80;;;;;;4861218;29;20163;-51
2021/01/02 04:32:33;;;;;;;3.97;3.35;;;18.10;51.80;;;;;;4859363;29;20065;-48
2021/01/02 04:34:59;;;;;;;3.17;2.75;;;18.00;51.70;;;;;;4857329;29;20105;-52
2021/01/02 04:37:27;;;;;;;8.95;3.10;;;18.00;51.70;;;;;;4861919;29;20502;-54
2021/01/02 04:39:53;;;;;;;4.80;3.05;;;18.00;51.70;;;;;;4862619;29;20407;-51
2021/01/02 04:42:22;;;;;;;3.55;2.45;;;18.00;51.60;;;;;;4852103;29;20045;-49
2021/01/02 04:44:50;;;;;;;4.07;3.22;;;18.00;51.70;;;;;;4851572;29;20077;-49
2021/01/02 04:47:19;;;;;;;2.67;2.47;;;18.00;51.60;;;;;;4849737;29;20108;-53
2021/01/02 04:49:46;;;;;;;5.50;3.92;;;18.00;51.60;;;;;;4847420;29;20053;-53
2021/01/02 04:52:15;;;;;;;6.80;2.85;;;18.00;51.60;;;;;;4845867;29;20094;-48
2021/01/02 04:54:48;;;;;;;4.55;2.80;;;18.00;51.60;;;;;;4844547;29;20478;-50
2021/01/02 04:57:15;;;;;;;4.90;2.80;;;18.00;51.60;;;;;;4842151;29;20456;-48
2021/01/02 04:59:48;;;;;;;3.17;2.83;;;18.00;51.40;;;;;;4843065;29;20053;-52
2021/01/02 05:02:19;;;;;;;4.72;2.65;;;18.00;51.50;;;;;;4825121;29;20057;-49
2021/01/02 05:04:47;;;;;;;3.00;2.42;;;18.00;51.50;;;;;;4843546;29;20049;-53
2021/01/02 05:07:23;;;;;;;4.80;3.13;;;18.00;51.50;;;;;;4843206;29;20049;-51
2021/01/02 05:09:49;;;;;;;;;;;18.00;51.50;;;;;;4842896;29;20084;-51
2021/01/02 05:12:27;;;;;;;2.50;2.05;;;17.90;50.50;;;;;;4847935;29;19939;-62
2021/01/02 05:15:02;;;;;;;3.90;2.50;;;17.90;51.10;;;;;;4848753;29;20069;-50
2021/01/02 05:17:30;;;;;;;3.20;2.90;;;17.90;51.20;;;;;;4849372;29;20045;-51
2021/01/02 05:20:05;;;;;;;10.02;3.33;;;17.90;51.20;;;;;;4853336;29;20087;-52
2021/01/02 05:22:31;;;;;;;5.10;2.90;;;17.90;51.30;;;;;;4853190;29;20605;-51
2021/01/02 05:25:18;;;;;;;3.20;2.55;;;17.90;51.20;;;;;;4861661;29;20136;-48
2021/01/02 05:27:46;;;;;;;1.92;1.83;;;17.90;51.40;;;;;;4858870;29;20064;-49
2021/01/02 05:30:27;;;;;;;4.78;2.92;;;17.90;51.20;;;;;;4861499;29;20083;-47
2021/01/02 05:33:05;;;;;;;3.67;3.38;;;17.90;51.40;;;;;;4859595;29;20041;-49
2021/01/02 05:35:41;;;;;;;5.07;3.53;;;17.90;51.30;;;;;;4859548;29;20056;-48
2021/01/02 05:38:17;;;;;;;2.78;2.55;;;17.90;51.30;;;;;;4859402;29;20502;-49
2021/01/02 05:40:46;;;;;;;4.80;3.40;;;17.90;51.20;;;;;;4859332;29;20514;-55
2021/01/02 05:43:14;;;;;;;4.13;2.80;;;17.90;51.10;;;;;;4857323;29;20609;-51
2021/01/02 05:45:41;;;;;;;6.68;3.13;;;17.90;51.20;;;;;;4860371;29;20056;-50
2021/01/02 05:48:14;;;;;;;3.15;2.63;;;17.90;51.10;;;;;;4864550;29;20109;-49
2021/01/02 05:50:43;;;;;;;7.85;2.55;;;17.90;51.30;;;;;;4859719;29;20053;-52
2021/01/02 05:53:34;;;;;;;5.57;3.42;;;17.90;51.20;;;;;;4857363;29;20510;-52
2021/01/02 05:56:04;;;;;;;2.70;2.55;;;17.90;51.10;;;;;;4827617;29;20506;-55
2021/01/02 05:58:32;;;;;;;3.38;2.60;;;17.90;51.10;;;;;;4858976;29;20288;-50
2021/01/02 06:01:05;;;;;;;2.70;2.40;;;17.90;51.10;;;;;;4857271;29;20056;-52
2021/01/02 06:03:35;;;;;;;5.30;3.50;;;17.90;51.20;;;;;;4859220;29;20053;-51
2021/01/02 06:06:03;;;;;;;3.53;2.90;;;17.90;51.10;;;;;;4860310;29;20049;-53
2021/01/02 06:08:31;;;;;;;2.72;2.50;;;17.90;51.10;;;;;;4859486;29;20049;-47
2021/01/02 06:11:01;;;;;;;3.90;2.85;;;17.90;51.00;;;;;;4855222;29;20045;-50
2021/01/02 06:13:29;;;;;;;3.20;2.78;;;17.90;51.00;;;;;;4858990;29;20050;-53
2021/01/02 06:16:01;;;;;;;3.38;2.80;;;17.90;51.00;;;;;;4862456;29;20041;-50
2021/01/02 06:18:29;;;;;;;3.35;2.50;;;17.90;51.00;;;;;;4859914;29;20046;-53
2021/01/02 06:21:00;;;;;;;4.07;3.10;;;17.90;51.00;;;;;;4858876;29;20120;-49
2021/01/02 06:23:27;;;;;;;5.95;2.92;;;17.90;50.90;;;;;;4857668;29;20097;-54
2021/01/02 06:25:54;;;;;;;4.45;3.22;;;17.90;50.90;;;;;;4860643;29;20037;-50
2021/01/02 06:28:21;;;;;;;3.25;2.97;;;17.90;50.90;;;;;;4856482;29;20052;-55
2021/01/02 06:30:48;;;;;;;4.03;2.72;;;17.90;50.90;;;;;;4859901;29;20076;-53
2021/01/02 06:33:16;;;;;;;4.28;3.20;;;17.90;50.80;;;;;;4860900;29;20065;-50
2021/01/02 06:35:43;;;;;;;7.32;3.17;;;17.90;50.90;;;;;;4863154;29;20077;-54
2021/01/02 06:38:12;;;;;;;4.15;3.75;;;17.90;50.80;;;;;;4859351;29;20582;-50
2021/01/02 06:40:42;;;;;;;3.55;2.90;;;17.90;50.80;;;;;;4861675;29;20462;-47
2021/01/02 06:43:11;;;;;;;3.75;3.00;;;17.90;50.80;;;;;;4865043;29;20061;-52
2021/01/02 06:45:48;;;;;;;3.15;2.85;;;17.90;50.80;;;;;;4863500;29;20399;-51
2021/01/02 06:48:45;;;;;;;5.40;3.35;;;17.90;50.90;;;;;;4862006;29;20058;-53
2021/01/02 06:51:32;;;;;;;4.22;3.10;;;17.90;50.70;;;;;;4864315;29;20448;-52
2021/01/02 06:54:01;;;;;;;2.88;2.63;;;17.80;50.60;;;;;;4862361;29;20140;-51
2021/01/02 06:56:37;;;;;;;3.00;2.72;;;17.80;50.60;;;;;;4861667;29;20052;-51
2021/01/02 06:59:04;;;;;;;3.75;3.05;;;17.80;50.70;;;;;;4853360;29;20101;-54
2021/01/02 07:01:39;;;;;;;5.68;2.85;;;17.80;50.60;;;;;;4853050;29;20053;-50
2021/01/02 07:04:05;;;;;;;6.22;3.17;;;17.80;50.70;;;;;;4859416;29;20097;-48
2021/01/02 07:06:40;;;;;;;3.67;3.08;;;17.80;50.60;;;;;;4864289;29;20510;-50
2021/01/02 07:09:21;;;;;;;2.95;2.67;;;17.80;50.70;;;;;;4863833;29;20129;-52
2021/01/02 07:11:49;;;;;;;3.00;2.47;;;17.80;50.60;;;;;;4860477;29;20422;-55
2021/01/02 07:14:21;;;;;;;5.38;3.13;;;17.80;50.50;;;;;;4857301;29;20053;-49
2021/01/02 07:16:50;;;;;;;2.83;1.83;;;17.80;50.60;;;;;;4860001;29;20061;-54
2021/01/02 07:19:48;;;;;;;5.20;2.78;;;17.80;50.60;;;;;;4864495;29;20058;-55
2021/01/02 07:22:28;;;;;;;2.72;2.38;;;17.80;50.50;;;;;;4765115;30;20537;-49
2021/01/02 07:25:08;;;;;;;4.95;3.63;;;17.80;50.60;;;;;;4771339;30;20058;-54
2021/01/02 07:27:36;;;;;;;2.72;2.42;;;17.80;50.60;;;;;;4771958;30;20425;-48
2021/01/02 07:30:08;;;;;;;4.22;2.70;;;17.80;50.60;;;;;;4768637;30;20051;-48
2021/01/02 07:32:37;;;;;;;4.38;2.53;;;17.80;50.70;;;;;;4763430;30;20055;-51
2021/01/02 07:35:05;;;;;;;2.90;2.60;;;17.80;50.60;;;;;;4759175;30;20052;-50
2021/01/02 07:37:33;;;;;;;4.18;3.35;;;17.80;51.20;;;;;;4759328;30;20113;-54
2021/01/02 07:40:01;;;;;;;3.40;2.72;;;17.80;51.20;;;;;;4762613;30;20433;-51
2021/01/02 07:42:31;;;;;;;4.28;2.83;;;17.80;50.60;;;;;;4769064;30;20148;-52
2021/01/02 07:45:03;;;;;;;3.30;2.42;;;17.80;50.60;;;;;;4764279;30;20079;-50
2021/01/02 07:47:30;;;;;;;4.95;3.03;;;17.80;50.60;;;;;;4768469;30;20052;-49
2021/01/02 07:50:04;;;;;;;7.65;3.33;;;17.80;51.10;;;;;;4764601;30;20580;-52
2021/01/02 07:52:32;;;;;;;6.05;2.72;;;17.80;50.60;;;;;;4764827;30;20491;-48
2021/01/02 07:55:07;;;;;;;4.75;3.08;;;17.80;50.40;;;;;;4767643;30;20121;-47
2021/01/02 07:57:34;;;;;;;5.60;2.65;;;17.80;50.60;;;;;;4802894;29;20411;-49
2021/01/02 08:00:04;;;;;;;3.97;3.25;;;17.80;50.50;;;;;;4861645;29;20117;-49
2021/01/02 08:02:40;;;;;;;7.25;3.60;;;17.80;50.50;;;;;;4861217;29;20128;-54
2021/01/02 08:05:09;;;;;;;7.60;3.85;;;17.80;50.40;;;;;;4862651;29;20159;-53
2021/01/02 08:07:35;;;;;;;3.72;2.92;;;17.70;50.40;;;;;;4857441;29;20049;-47
2021/01/02 08:10:04;;;;;;;4.03;3.28;;;17.70;50.40;;;;;;4846188;29;20058;-52
2021/01/02 08:12:32;;;;;;;3.80;3.20;;;17.70;50.40;;;;;;4864386;29;20049;-52
2021/01/02 08:14:59;;;;;;;5.88;3.30;;;17.70;50.40;;;;;;4861059;29;20101;-50
2021/01/02 08:17:26;;;;;;;3.13;2.83;;;17.70;50.40;;;;;;4859524;29;20080;-54
2021/01/02 08:19:55;;;;;;;6.35;2.58;;;17.70;50.40;;;;;;4858460;29;20068;-54
2021/01/02 08:22:35;;;;;;;4.65;3.25;;;17.80;50.60;;;;;;4857295;29;20045;-50
2021/01/02 08:25:05;;;;;;;2.88;2.67;;;17.80;50.70;;;;;;4854957;29;20053;-53
2021/01/02 08:27:32;;;;;;;3.40;2.72;;;17.70;50.50;;;;;;4864324;29;20436;-48
2021/01/02 08:30:03;;;;;;;2.53;2.33;;;17.70;50.50;;;;;;4857013;29;20049;-50
2021/01/02 08:32:33;;;;;;;5.53;2.95;;;17.70;50.60;;;;;;4844070;29;20537;-52
2021/01/02 08:35:00;;;;;;;2.72;2.17;;;17.70;50.60;;;;;;4856713;29;20132;-54
2021/01/02 08:37:27;;;;;;;3.35;3.03;;;17.70;50.60;;;;;;4861314;29;20081;-53
2021/01/02 08:40:06;;;;;;;3.50;2.53;;;17.70;50.60;;;;;;4858693;29;20125;-53
2021/01/02 08:42:37;;;;;;;3.45;2.58;;;17.70;50.70;;;;;;4861623;29;20133;-51
2021/01/02 08:45:06;;;;;;;3.25;2.42;;;17.70;50.70;;;;;;4860969;29;20116;-54
2021/01/02 08:47:34;;;;;;;4.10;3.38;;;17.70;50.60;;;;;;4843777;29;20042;-49
2021/01/02 08:50:09;;;;;;;4.10;3.03;;;17.70;50.60;;;;;;4856550;29;20049;-56
2021/01/02 08:52:36;;;;;;;3.17;2.88;;;17.70;50.60;;;;;;4855172;29;20049;-53
2021/01/02 08:55:20;;;;;;;4.20;2.83;;;17.70;50.50;;;;;;4861443;29;20426;-50
2021/01/02 08:57:48;;;;;;;3.05;2.58;;;17.70;50.60;;;;;;4857331;29;20109;-50
2021/01/02 09:00:21;;;;;;;2.60;2.35;;;17.70;51.00;;;;;;4857655;29;20447;-55
2021/01/02 09:02:59;;;;;;;3.47;2.70;;;17.70;50.50;;;;;;4843379;29;20417;-50
2021/01/02 09:05:28;;;;;;;3.75;2.00;;;17.70;50.50;;;;;;4860523;29;20067;-55
2021/01/02 09:07:56;;;;;;;2.92;2.72;;;17.70;50.50;;;;;;4856600;29;20085;-52
2021/01/02 09:10:27;;;;;;;3.97;2.65;;;17.70;50.50;;;;;;4858555;29;20144;-50
2021/01/02 09:13:09;;;;;;;4.22;2.72;;;17.70;50.60;;;;;;4864414;29;20049;-51
2021/01/02 09:15:48;;;;;;;3.58;2.60;;;17.70;50.60;;;;;;4860393;29;20049;-51
2021/01/02 09:18:16;;;;;;;2.72;2.42;;;17.70;50.50;;;;;;4857603;29;20081;-56
2021/01/02 09:20:43;;;;;;;3.67;2.88;;;17.60;50.40;;;;;;4860076;29;20128;-48
2021/01/02 09:23:10;;;;;;;4.72;3.45;;;17.60;50.50;;;;;;4860187;29;20124;-51
2021/01/02 09:25:39;;;;;;;2.80;2.60;;;17.60;50.50;;;;;;4856427;29;20094;-51
2021/01/02 09:28:13;;;;;;;3.50;2.70;;;17.70;50.60;;;;;;4859157;29;20053;-50
2021/01/02 09:30:42;;;;;;;2.00;1.90;;;17.70;50.70;;;;;;4847167;29;20050;-49
2021/01/02 09:33:09;;;;;;;3.60;2.95;;;17.60;50.60;;;;;;4859282;29;20078;-49
2021/01/02 09:35:37;;;;;;;4.15;2.40;;;17.60;50.60;;;;;;4857147;29;20065;-50
2021/01/02 09:38:04;;;;;;;3.67;3.38;;;17.60;50.70;;;;;;4853254;29;20074;-51
2021/01/02 09:40:33;;;;;;;2.75;2.55;;;17.60;50.70;;;;;;4860474;29;20172;-50
2021/01/02 09:43:01;;;;;;;2.33;2.13;;;17.70;50.80;;;;;;4836569;29;20510;-54
2021/01/02 09:45:28;;;;;;;2.17;2.08;;;17.60;50.70;;;;;;4857574;29;20491;-54
2021/01/02 09:47:55;;;;;;;3.25;2.75;;;17.60;51.00;;;;;;4851717;29;20262;-49
2021/01/02 09:50:22;;;;;;;4.57;4.18;;;17.70;51.10;;;;;;4857197;29;20470;-55
2021/01/02 09:52:49;;;;;;;10.05;3.25;;;17.70;51.30;;;;;;4849783;29;20511;-48
2021/01/02 09:55:16;;;;;;;3.47;3.20;;;17.60;51.40;;;;;;4851802;29;20525;-48
2021/01/02 09:57:46;;;;;;;4.78;2.85;;;17.70;52.20;;;;;;4861697;29;20499;-50
2021/01/02 10:00:14;;;;;;;4.63;3.70;;;17.70;51.90;;;;;;4856575;29;20120;-47
2021/01/02 10:02:41;;;;;;;5.68;3.15;;;17.70;51.90;;;;;;4851037;29;20497;-47
2021/01/02 10:05:09;;;;;;;6.03;4.50;;;17.60;51.90;;;;;;4851547;29;20080;-50
2021/01/02 10:07:36;;;;;;;91.32;42.40;;;17.70;52.00;;;;;;4859830;29;20525;-49
2021/01/02 10:10:03;;;;;;;61.92;28.50;;;17.70;52.00;;;;;;4858306;29;20065;-48
2021/01/02 10:12:30;;;;;;;45.08;21.58;;;17.70;52.20;;;;;;4856690;29;20057;-46
2021/01/02 10:14:57;;;;;;;55.55;23.95;;;17.70;52.10;;;;;;4855484;29;20045;-59
2021/01/02 10:17:27;;;;;;;53.80;21.35;;;17.70;52.30;;;;;;4858086;29;20041;-51
2021/01/02 10:19:54;;;;;;;45.05;19.25;;;17.70;52.20;;;;;;4849597;29;20092;-49
2021/01/02 10:22:21;;;;;;;46.63;19.50;;;17.70;52.50;;;;;;4858839;29;20056;-51
2021/01/02 10:24:48;;;;;;;70.35;18.73;;;17.70;52.50;;;;;;4856575;29;20057;-49
2021/01/02 10:27:16;;;;;;;53.00;19.10;;;17.70;52.50;;;;;;4857298;29;20244;-50
2021/01/02 10:29:43;;;;;;;55.17;18.38;;;17.70;52.50;;;;;;4861659;29;20068;-59
2021/01/02 10:32:11;;;;;;;32.88;13.65;;;17.80;52.80;;;;;;4847468;29;20507;-45
2021/01/02 10:34:38;;;;;;;37.85;16.48;;;17.70;52.90;;;;;;4848841;29;20082;-59
2021/01/02 10:37:04;;;;;;;37.45;13.52;;;17.80;53.00;;;;;;4855449;29;20052;-58
2021/01/02 10:39:31;;;;;;;49.58;15.48;;;17.80;52.80;;;;;;4841594;29;20595;-56
2021/01/02 10:41:58;;;;;;;41.08;14.50;;;17.80;53.00;;;;;;4857032;29;20045;-47
2021/01/02 10:44:25;;;;;;;32.08;13.93;;;17.80;53.00;;;;;;4856554;29;20148;-50
2021/01/02 10:46:54;;;;;;;29.17;13.00;;;17.80;53.10;;;;;;4854062;29;20046;-48
2021/01/02 10:49:23;;;;;;;37.75;14.80;;;17.80;53.10;;;;;;4856831;29;20106;-48
2021/01/02 10:51:50;;;;;;;41.20;14.05;;;17.80;53.10;;;;;;4860705;29;20082;-48
2021/01/02 10:54:19;;;;;;;42.72;14.07;;;17.80;53.10;;;;;;4857343;29;20061;-51
2021/01/02 10:56:47;;;;;;;32.45;14.15;;;17.80;53.20;;;;;;4860160;29;20747;-47
2021/01/02 10:59:15;;;;;;;32.33;13.05;;;17.80;53.10;;;;;;4855438;29;20080;-46
2021/01/02 11:01:42;;;;;;;37.63;13.35;;;17.80;53.40;;;;;;4837701;29;20069;-54
2021/01/02 11:04:10;;;;;;;29.90;12.32;;;17.80;52.60;;;;;;4853597;29;20049;-52
2021/01/02 11:06:40;;;;;;;33.25;11.82;;;17.80;52.60;;;;;;4844676;29;20103;-49
2021/01/02 11:09:09;;;;;;;38.22;12.23;;;17.90;53.10;;;;;;4849994;29;20107;-48
2021/01/02 11:11:36;;;;;;;22.00;11.05;;;17.80;53.30;;;;;;4846748;29;20149;-46
2021/01/02 11:14:04;;;;;;;22.35;11.85;;;17.90;53.50;;;;;;4848877;29;20113;-46
2021/01/02 11:16:32;;;;;;;30.55;11.75;;;17.90;53.60;;;;;;4851276;29;20057;-46
2021/01/02 11:18:59;;;;;;;20.98;10.82;;;17.80;53.40;;;;;;4859965;29;20558;-47
2021/01/02 11:21:26;;;;;;;19.95;10.63;;;17.80;53.10;;;;;;4844449;29;20060;-46
2021/01/02 11:23:53;;;;;;;21.45;10.35;;;17.90;53.00;;;;;;4857263;29;20056;-49
2021/01/02 11:26:20;;;;;;;56.88;19.83;;;17.80;53.00;;;;;;4859968;29;20049;-47
2021/01/02 11:28:47;;;;;;;45.00;20.13;;;17.90;53.10;;;;;;4858894;29;20053;-48
2021/01/02 11:31:14;;;;;;;45.75;20.20;;;17.90;53.10;;;;;;4862329;29;20049;-45
2021/01/02 11:33:41;;;;;;;45.25;20.33;;;17.90;53.00;;;;;;4861556;29;20061;-49
2021/01/02 11:36:07;;;;;;;41.55;16.65;;;17.90;52.80;;;;;;4861550;29;20038;-45
2021/01/02 11:38:34;;;;;;;43.22;17.48;;;17.90;52.60;;;;;;4856110;29;20048;-46
2021/01/02 11:41:02;;;;;;;32.75;16.73;;;17.90;52.40;;;;;;4851671;29;20038;-48
2021/01/02 11:43:28;;;;;;;42.88;18.23;;;17.90;52.20;;;;;;4851616;29;20049;-48
2021/01/02 11:45:55;;;;;;;76.75;21.98;;;17.90;52.30;;;;;;4860921;29;20081;-45
2021/01/02 11:48:22;;;;;;;53.67;21.58;;;17.90;52.70;;;;;;4863104;29;20046;-50
2021/01/02 11:50:48;;;;;;;53.55;17.92;;;17.90;53.40;;;;;;4861837;29;20451;-51
2021/01/02 11:53:15;;;;;;;58.28;20.77;;;17.90;54.10;;;;;;4858651;29;20082;-54
2021/01/02 11:55:42;;;;;;;60.78;21.50;;;17.90;54.60;;;;;;4852524;29;20128;-50
2021/01/02 11:58:10;;;;;;;43.90;18.40;;;17.90;55.50;;;;;;4851642;29;20057;-56
2021/01/02 12:00:36;;;;;;;47.97;18.92;;;17.90;56.00;;;;;;4855223;29;20517;-56
2021/01/02 12:03:04;;;;;;;35.85;19.10;;;17.90;56.10;;;;;;4854860;29;20049;-58
2021/01/02 12:05:30;;;;;;;43.05;17.98;;;17.90;56.40;;;;;;4852029;29;20042;-53
2021/01/02 12:07:57;;;;;;;35.25;15.35;;;18.00;56.70;;;;;;4853437;29;20053;-52
2021/01/02 12:10:24;;;;;;;31.23;15.55;;;17.90;56.90;;;;;;4856786;29;20050;-52
2021/01/02 12:12:50;;;;;;;34.78;15.82;;;18.00;57.10;;;;;;4853617;29;20049;-50
2021/01/02 12:15:18;;;;;;;37.80;17.67;;;18.00;57.30;;;;;;4860462;29;20425;-48
2021/01/02 12:17:45;;;;;;;33.05;16.58;;;18.00;57.70;;;;;;4854671;29;20439;-50
2021/01/02 12:20:12;;;;;;;58.70;19.10;;;18.00;57.70;;;;;;4859486;29;20045;-54
2021/01/02 12:22:39;;;;;;;61.40;22.85;;;18.00;57.90;;;;;;4860995;29;20053;-50
2021/01/02 12:25:06;;;;;;;63.55;24.60;;;18.00;58.10;;;;;;4861227;29;20506;-52
2021/01/02 12:27:34;;;;;;;69.05;28.25;;;18.10;58.80;;;;;;4859715;29;20050;-47
2021/01/02 12:30:01;;;;;;;65.53;26.48;;;18.10;59.20;;;;;;4861799;29;20417;-50
2021/01/02 12:32:29;;;;;;;61.03;25.35;;;18.10;59.50;;;;;;4858104;29;20072;-49
2021/01/02 12:34:56;;;;;;;48.95;23.67;;;18.10;59.90;;;;;;4854363;29;20061;-47
2021/01/02 12:37:22;;;;;;;54.90;23.98;;;18.10;60.00;;;;;;4851427;29;20050;-50
2021/01/02 12:39:49;;;;;;;54.28;22.40;;;18.10;60.30;;;;;;4850345;29;20049;-49
2021/01/02 12:42:16;;;;;;;61.95;22.77;;;18.20;60.40;;;;;;4852486;29;20045;-50
2021/01/02 12:44:49;;;;;;;61.88;21.50;;;18.10;60.50;;;;;;4851961;29;20071;-53
2021/01/02 12:47:17;;;;;;;59.75;23.00;;;18.20;60.70;;;;;;4855288;29;20060;-51
2021/01/02 12:49:47;;;;;;;49.17;22.58;;;18.20;60.80;;;;;;4849509;29;20052;-50
2021/01/02 12:52:14;;;;;;;46.38;21.27;;;18.20;61.00;;;;;;4858503;29;20142;-49
2021/01/02 12:54:42;;;;;;;56.95;20.35;;;18.20;61.00;;;;;;4853061;29;20081;-50
2021/01/02 12:57:09;;;;;;;49.50;20.98;;;18.20;60.90;;;;;;4853577;29;20057;-49
2021/01/02 12:59:37;;;;;;;45.10;21.20;;;18.20;61.20;;;;;;4858664;29;20140;-47